Time;durP1;ratioP1;P1;durP2;ratioP2;P2;SDS_P1;SDS_P2;PMS_P1;PMS_P2;Temp;Humidity;BMP_temperature;BMP_pressure;BME280_temperature;BME280_humidity;BME280_pressure;Samples;Min_cycle;Max_cycle;Signal;HPM_P1;HPM_P2
2023/03/19 00:00:47;;;;;;;;;;;;;;;2.74;60.00;95436.63;4961230;29;1067;-73
2023/03/19 00:03:17;;;;;;;;;;;;;;;2.72;60.54;95447.81;5010862;28;1914;-73
2023/03/19 00:05:50;;;;;;;;;;;;;;;2.65;60.38;95441.91;4980751;28;815;-73
2023/03/19 00:08:21;;;;;;;;;;;;;;;2.55;60.21;95437.44;4981301;28;956;-73
2023/03/19 00:10:49;;;;;;;;;;;;;;;2.41;60.12;95439.25;4980902;28;1067;-73
2023/03/19 00:13:25;;;;;;;;;;;;;;;2.32;60.70;95443.72;4982035;28;1048;-73
2023/03/19 00:15:52;;;;;;;;;;;;;;;2.33;61.35;95440.72;4998195;28;1071;-73
2023/03/19 00:18:21;;;;;;;;;;;;;;;2.37;60.85;95441.75;5015076;28;1249;-73
2023/03/19 00:20:49;;;;;;;;;;;;;;;2.45;61.11;95442.19;4983961;28;1064;-73
2023/03/19 00:23:17;;;;;;;;;;;;;;;2.48;61.01;95441.63;5015293;28;1906;-73
2023/03/19 00:25:45;;;;;;;;;;;;;;;2.46;60.84;95430.19;4980403;28;1186;-73
2023/03/19 00:28:12;;;;;;;;;;;;;;;2.39;61.29;95423.19;4980265;28;1048;-73
2023/03/19 00:30:48;;;;;;;;;;;;;;;2.37;61.66;95419.16;5012319;28;1410;-73
2023/03/19 00:33:16;;;;;;;;;;;;;;;2.37;61.32;95419.16;4980666;28;1238;-72
2023/03/19 00:35:46;;;;;;;;;;;;;;;2.33;62.09;95421.66;4979454;28;1152;-72
2023/03/19 00:38:15;;;;;;;;;;;;;;;2.28;61.79;95421.69;4979700;28;1080;-73
2023/03/19 00:40:44;;;;;;;;;;;;;;;2.29;61.28;95417.09;4979468;28;1163;-73
2023/03/19 00:43:12;;;;;;;;;;;;;;;2.33;61.46;95413.50;4979830;28;1883;-72
2023/03/19 00:45:47;;;;;;;;;;;;;;;2.32;61.84;95408.31;4980615;28;1007;-72
2023/03/19 00:48:17;;;;;;;;;;;;;;;2.28;60.90;95410.81;4979624;28;1191;-72
2023/03/19 00:50:45;;;;;;;;;;;;;;;2.28;61.16;95402.66;4995086;28;1071;-73
2023/03/19 00:53:13;;;;;;;;;;;;;;;2.30;61.95;95405.91;4979854;28;1076;-72
2023/03/19 00:55:40;;;;;;;;;;;;;;;2.31;61.85;95399.34;4979712;28;742;-72
2023/03/19 00:58:09;;;;;;;;;;;;;;;2.29;61.23;95404.28;5011276;28;1057;-72
2023/03/19 01:00:37;;;;;;;;;;;;;;;2.26;61.26;95396.72;4979485;28;1272;-73
2023/03/19 01:03:07;;;;;;;;;;;;;;;2.18;61.93;95400.09;4978639;28;1895;-72
2023/03/19 01:05:35;;;;;;;;;;;;;;;2.13;61.88;95400.13;4978857;28;1157;-72
2023/03/19 01:08:05;;;;;;;;;;;;;;;2.09;62.23;95396.38;4979612;28;958;-72
2023/03/19 01:10:34;;;;;;;;;;;;;;;2.10;62.24;95387.91;4979169;28;1258;-72
2023/03/19 01:13:02;;;;;;;;;;;;;;;2.08;62.04;95392.84;4978402;28;1463;-72
2023/03/19 01:15:30;;;;;;;;;;;;;;;2.00;61.81;95387.22;4978535;28;1250;-72
2023/03/19 01:18:01;;;;;;;;;;;;;;;1.87;61.74;95380.59;5010625;28;1325;-72
2023/03/19 01:20:34;;;;;;;;;;;;;;;1.88;62.20;95385.72;4978856;28;1134;-72
2023/03/19 01:23:05;;;;;;;;;;;;;;;1.95;62.35;95373.69;4979166;28;1903;-72
2023/03/19 01:25:33;;;;;;;;;;;;;;;2.01;62.54;95381.50;4979152;28;1031;-72
2023/03/19 01:28:03;;;;;;;;;;;;;;;2.02;62.44;95383.13;4978652;28;1161;-72
2023/03/19 01:30:31;;;;;;;;;;;;;;;2.03;62.26;95383.94;4979463;28;1057;-72
2023/03/19 01:32:59;;;;;;;;;;;;;;;2.03;62.33;95381.22;4979210;28;956;-72
2023/03/19 01:35:31;;;;;;;;;;;;;;;2.04;62.20;95389.09;4978952;28;1004;-72
2023/03/19 01:38:06;;;;;;;;;;;;;;;2.07;62.34;95380.34;5010461;28;1181;-72
2023/03/19 01:40:36;;;;;;;;;;;;;;;1.93;63.02;95384.88;5010856;28;1225;-72
2023/03/19 01:43:25;;;;;;;;;;;;;;;1.77;62.90;95381.50;5010467;28;1985;-72
2023/03/19 01:45:55;;;;;;;;;;;;;;;1.75;62.70;95377.47;4978027;28;1056;-72
2023/03/19 01:48:29;;;;;;;;;;;;;;;1.69;62.85;95395.75;4978955;28;1094;-72
2023/03/19 01:50:59;;;;;;;;;;;;;;;1.61;62.20;95397.19;5010697;28;1262;-71
2023/03/19 01:53:34;;;;;;;;;;;;;;;1.62;62.48;95396.09;4977541;28;1257;-72
2023/03/19 01:56:04;;;;;;;;;;;;;;;1.67;62.95;95396.06;4978865;28;1025;-72
2023/03/19 01:58:35;;;;;;;;;;;;;;;1.74;62.53;95401.13;4978665;28;724;-72
2023/03/19 02:01:05;;;;;;;;;;;;;;;1.78;62.66;95395.91;4977676;28;1321;-72
2023/03/19 02:03:32;;;;;;;;;;;;;;;1.78;63.26;95390.47;4980749;28;1898;-71
2023/03/19 02:06:00;;;;;;;;;;;;;;;1.76;62.38;95396.22;4980739;28;1289;-71
2023/03/19 02:08:28;;;;;;;;;;;;;;;1.79;62.63;95392.13;4981323;28;1287;-71
2023/03/19 02:11:08;;;;;;;;;;;;;;;1.80;62.76;95385.56;4997406;28;983;-71
2023/03/19 02:13:37;;;;;;;;;;;;;;;1.71;63.68;95390.84;4980715;28;1321;-71
2023/03/19 02:16:06;;;;;;;;;;;;;;;1.64;63.51;95387.66;4997730;28;1113;-72
2023/03/19 02:18:33;;;;;;;;;;;;;;;1.61;63.57;95391.75;4980672;28;1087;-72
2023/03/19 02:21:05;;;;;;;;;;;;;;;1.62;63.78;95382.50;4997758;28;988;-71
2023/03/19 02:23:34;;;;;;;;;;;;;;;1.64;63.93;95388.47;4997198;28;1985;-71
2023/03/19 02:26:09;;;;;;;;;;;;;;;1.63;63.34;95383.31;4997289;28;1257;-71
2023/03/19 02:28:39;;;;;;;;;;;;;;;1.56;63.67;95393.69;4980488;28;1181;-71
2023/03/19 02:31:09;;;;;;;;;;;;;;;1.45;63.80;95398.44;4980587;28;1251;-71
2023/03/19 02:33:40;;;;;;;;;;;;;;;1.44;63.45;95394.09;4997313;28;1262;-72
2023/03/19 02:36:15;;;;;;;;;;;;;;;1.46;63.89;95391.13;4997536;28;1006;-72
2023/03/19 02:38:44;;;;;;;;;;;;;;;1.49;64.28;95396.78;4980432;28;1336;-72
2023/03/19 02:41:20;;;;;;;;;;;;;;;1.53;63.14;95408.72;4980356;28;1177;-72
2023/03/19 02:43:50;;;;;;;;;;;;;;;1.52;63.72;95398.09;4997562;28;1898;-72
2023/03/19 02:46:20;;;;;;;;;;;;;;;1.48;63.58;95397.06;4997576;28;998;-72
2023/03/19 02:48:47;;;;;;;;;;;;;;;1.43;63.37;95401.44;4996804;28;1251;-72
2023/03/19 02:51:15;;;;;;;;;;;;;;;1.30;63.89;95395.88;5012554;28;1204;-72
2023/03/19 02:53:45;;;;;;;;;;;;;;;1.19;63.87;95406.81;4980122;28;1129;-72
2023/03/19 02:56:20;;;;;;;;;;;;;;;1.17;64.04;95409.03;4997222;28;995;-71
2023/03/19 02:58:50;;;;;;;;;;;;;;;1.20;64.14;95404.94;4996880;28;1010;-72
2023/03/19 03:01:20;;;;;;;;;;;;;;;1.25;64.12;95404.09;4997224;28;1452;-72
2023/03/19 03:03:49;;;;;;;;;;;;;;;1.26;63.82;95411.13;4996660;28;1977;-73
2023/03/19 03:06:18;;;;;;;;;;;;;;;1.27;64.05;95418.19;4980332;28;1150;-72
2023/03/19 03:08:49;;;;;;;;;;;;;;;1.32;64.71;95420.88;5013265;28;1180;-72
2023/03/19 03:11:19;;;;;;;;;;;;;;;1.32;63.63;95415.44;4980915;28;1236;-72
2023/03/19 03:13:45;;;;;;;;;;;;;;;1.33;63.60;95419.75;4996999;28;1074;-72
2023/03/19 03:16:14;;;;;;;;;;;;;;;1.37;62.88;95420.81;4979749;28;1223;-72
2023/03/19 03:18:42;;;;;;;;;;;;;;;1.41;63.31;95421.84;4997425;28;991;-72
2023/03/19 03:21:10;;;;;;;;;;;;;;;1.47;63.20;95417.19;4997373;28;726;-72
2023/03/19 03:23:37;;;;;;;;;;;;;;;1.46;62.81;95416.38;4998108;28;1906;-72
2023/03/19 03:26:07;;;;;;;;;;;;;;;1.43;62.88;95423.19;5000998;28;1095;-72
2023/03/19 03:28:38;;;;;;;;;;;;;;;1.44;63.34;95424.00;5001253;28;987;-72
2023/03/19 03:31:05;;;;;;;;;;;;;;;1.46;63.20;95421.81;5000866;28;1126;-72
2023/03/19 03:33:36;;;;;;;;;;;;;;;1.41;63.48;95417.22;5000970;28;984;-72
2023/03/19 03:36:05;;;;;;;;;;;;;;;1.41;63.31;95417.22;5001017;28;1139;-72
2023/03/19 03:38:35;;;;;;;;;;;;;;;1.42;63.42;95423.50;4983696;28;1554;-72
2023/03/19 03:41:05;;;;;;;;;;;;;;;1.32;63.34;95424.38;5001027;28;744;-72
2023/03/19 03:43:38;;;;;;;;;;;;;;;1.19;63.76;95427.75;4983509;28;1156;-72
2023/03/19 03:46:07;;;;;;;;;;;;;;;0.98;63.71;95429.00;5000865;28;1910;-72
2023/03/19 03:48:35;;;;;;;;;;;;;;;0.90;64.28;95425.00;5000843;28;1048;-72
2023/03/19 03:51:04;;;;;;;;;;;;;;;0.88;64.10;95430.72;5000398;28;923;-72
2023/03/19 03:53:32;;;;;;;;;;;;;;;0.95;65.09;95428.50;4983491;28;1118;-72
2023/03/19 03:56:03;;;;;;;;;;;;;;;0.93;64.66;95440.72;4983344;28;1183;-71
2023/03/19 03:58:31;;;;;;;;;;;;;;;0.86;65.12;95435.63;4983547;28;1218;-72
2023/03/19 04:01:11;;;;;;;;;;;;;;;0.77;64.88;95441.94;4983600;28;1284;-72
2023/03/19 04:03:43;;;;;;;;;;;;;;;0.67;65.17;95434.66;4961601;28;1023;-72
2023/03/19 04:06:10;;;;;;;;;;;;;;;0.65;65.34;95436.84;4960984;29;1902;-72
2023/03/19 04:08:39;;;;;;;;;;;;;;;0.65;65.35;95434.97;4961692;29;1015;-73
2023/03/19 04:11:07;;;;;;;;;;;;;;;0.70;65.29;95431.41;4961605;28;808;-72
2023/03/19 04:13:36;;;;;;;;;;;;;;;0.74;65.16;95428.94;4959668;29;1536;-72
2023/03/19 04:16:08;;;;;;;;;;;;;;;0.79;64.77;95435.13;4992522;28;1106;-72
2023/03/19 04:18:36;;;;;;;;;;;;;;;0.82;64.51;95433.75;4976745;28;1276;-72
2023/03/19 04:21:05;;;;;;;;;;;;;;;0.83;64.35;95428.03;4976217;28;1069;-72
2023/03/19 04:23:37;;;;;;;;;;;;;;;0.90;64.59;95428.53;4961108;29;742;-72
2023/03/19 04:26:05;;;;;;;;;;;;;;;0.96;64.16;95432.84;4992308;28;1987;-72
2023/03/19 04:28:32;;;;;;;;;;;;;;;0.98;64.41;95429.84;4960927;29;1077;-72
2023/03/19 04:31:01;;;;;;;;;;;;;;;1.01;64.29;95436.59;4960167;29;1175;-72
2023/03/19 04:33:31;;;;;;;;;;;;;;;0.96;64.58;95429.31;4992864;28;1141;-71
2023/03/19 04:36:02;;;;;;;;;;;;;;;0.91;64.70;95437.50;4991875;28;1559;-71
2023/03/19 04:38:30;;;;;;;;;;;;;;;0.85;64.69;95439.44;4961152;29;944;-72
2023/03/19 04:41:03;;;;;;;;;;;;;;;0.84;65.15;95435.09;4960725;29;1028;-72
2023/03/19 04:43:31;;;;;;;;;;;;;;;0.89;64.96;95437.78;4960837;29;996;-72
2023/03/19 04:46:01;;;;;;;;;;;;;;;0.86;64.77;95440.25;4959375;29;1987;-72
2023/03/19 04:48:34;;;;;;;;;;;;;;;0.78;65.39;95441.66;4960311;29;1278;-72
2023/03/19 04:51:07;;;;;;;;;;;;;;;0.83;65.61;95446.22;4960562;29;1110;-73
2023/03/19 04:53:38;;;;;;;;;;;;;;;0.91;65.17;95445.66;4959955;29;1241;-74
2023/03/19 04:56:07;;;;;;;;;;;;;;;0.93;64.75;95448.88;4960537;29;758;-74
2023/03/19 04:58:37;;;;;;;;;;;;;;;0.96;64.64;95440.16;4959518;29;1259;-74
2023/03/19 05:01:06;;;;;;;;;;;;;;;0.98;64.60;95440.72;4975651;28;1441;-74
2023/03/19 05:03:38;;;;;;;;;;;;;;;0.97;64.77;95439.06;4978707;28;1200;-73
2023/03/19 05:06:06;;;;;;;;;;;;;;;0.92;64.84;95444.56;4979657;28;1911;-73
2023/03/19 05:08:33;;;;;;;;;;;;;;;0.99;65.10;95447.75;4978325;28;1039;-73
2023/03/19 05:11:03;;;;;;;;;;;;;;;1.03;64.89;95451.53;4977438;28;1224;-74
2023/03/19 05:13:38;;;;;;;;;;;;;;;1.05;65.06;95454.75;5010062;28;1072;-74
2023/03/19 05:16:08;;;;;;;;;;;;;;;1.08;65.09;95450.66;4978245;28;1007;-74
2023/03/19 05:18:41;;;;;;;;;;;;;;;1.16;64.69;95447.34;4978114;28;1023;-74
2023/03/19 05:21:10;;;;;;;;;;;;;;;1.22;65.04;95445.41;5008973;28;1303;-73
2023/03/19 05:23:41;;;;;;;;;;;;;;;1.26;64.69;95446.47;4993139;28;1050;-73
2023/03/19 05:26:12;;;;;;;;;;;;;;;1.30;65.19;95447.50;5009672;28;1914;-73
2023/03/19 05:28:43;;;;;;;;;;;;;;;1.32;64.73;95451.56;5009465;28;1300;-73
2023/03/19 05:31:12;;;;;;;;;;;;;;;1.37;64.98;95448.78;4977105;28;1114;-73
2023/03/19 05:33:43;;;;;;;;;;;;;;;1.41;64.48;95444.41;4976659;28;1086;-73
2023/03/19 05:36:14;;;;;;;;;;;;;;;1.43;65.49;95438.69;4976517;28;1138;-73
2023/03/19 05:38:42;;;;;;;;;;;;;;;1.49;64.88;95434.84;4976755;28;1173;-73
2023/03/19 05:41:14;;;;;;;;;;;;;;;1.57;65.04;95438.84;4977817;28;734;-73
2023/03/19 05:43:42;;;;;;;;;;;;;;;1.63;64.60;95437.69;4976574;28;1198;-74
2023/03/19 05:46:10;;;;;;;;;;;;;;;1.70;64.90;95438.16;5008176;28;1975;-74
2023/03/19 05:48:38;;;;;;;;;;;;;;;1.82;65.00;95444.03;4976809;28;1245;-74
2023/03/19 05:51:11;;;;;;;;;;;;;;;1.88;64.70;95445.56;4976692;28;1091;-73
2023/03/19 05:53:40;;;;;;;;;;;;;;;1.95;63.48;95449.88;4976284;28;1243;-73
2023/03/19 05:56:19;;;;;;;;;;;;;;;2.01;64.61;95454.97;4976777;28;1296;-74
2023/03/19 05:58:47;;;;;;;;;;;;;;;2.10;64.27;95450.50;4976611;28;1428;-73
2023/03/19 06:01:19;;;;;;;;;;;;;;;2.19;63.73;95445.25;4976539;28;1163;-74
2023/03/19 06:03:49;;;;;;;;;;;;;;;2.24;63.39;95442.44;4957883;29;1093;-73
2023/03/19 06:06:22;;;;;;;;;;;;;;;2.30;63.48;95446.72;4989490;28;1904;-73
2023/03/19 06:08:51;;;;;;;;;;;;;;;2.41;63.04;95439.25;4989405;28;1201;-73
2023/03/19 06:11:21;;;;;;;;;;;;;;;2.47;62.83;95453.59;4957009;29;1201;-74
2023/03/19 06:13:49;;;;;;;;;;;;;;;2.54;61.71;95454.03;4989239;28;1450;-74
2023/03/19 06:16:17;;;;;;;;;;;;;;;2.57;62.22;95451.53;4955242;29;1209;-75
2023/03/19 06:18:50;;;;;;;;;;;;;;;2.65;62.05;95450.06;4957677;29;865;-75
2023/03/19 06:21:20;;;;;;;;;;;;;;;2.69;61.62;95453.03;4956906;29;1122;-74
2023/03/19 06:23:49;;;;;;;;;;;;;;;2.74;61.54;95459.22;4956733;29;1399;-74
2023/03/19 06:26:19;;;;;;;;;;;;;;;2.76;61.28;95456.19;4957254;29;1907;-74
2023/03/19 06:28:47;;;;;;;;;;;;;;;2.79;60.61;95452.88;4988178;28;1144;-75
2023/03/19 06:31:15;;;;;;;;;;;;;;;2.82;60.37;95461.28;4957549;29;983;-74
2023/03/19 06:33:49;;;;;;;;;;;;;;;2.85;61.06;95451.72;4972698;28;1124;-74
2023/03/19 06:36:24;;;;;;;;;;;;;;;2.94;60.50;95460.03;4957460;29;964;-76
2023/03/19 06:38:55;;;;;;;;;;;;;;;3.01;60.73;95460.47;4956503;29;1192;-74
2023/03/19 06:41:26;;;;;;;;;;;;;;;3.10;60.41;95469.63;4957493;29;948;-74
2023/03/19 06:43:53;;;;;;;;;;;;;;;3.17;60.30;95466.53;4988118;28;1150;-74
2023/03/19 06:46:22;;;;;;;;;;;;;;;3.23;58.77;95476.22;4957732;29;1914;-74
2023/03/19 06:48:50;;;;;;;;;;;;;;;3.26;59.29;95473.72;4988778;28;1189;-74
2023/03/19 06:51:20;;;;;;;;;;;;;;;3.28;59.27;95471.50;4957280;29;765;-74
2023/03/19 06:53:48;;;;;;;;;;;;;;;3.30;58.12;95485.63;4956370;29;1268;-74
2023/03/19 06:56:15;;;;;;;;;;;;;;;3.33;58.30;95478.78;4987996;28;1577;-74
2023/03/19 06:58:44;;;;;;;;;;;;;;;3.44;58.59;95480.25;4988315;28;1096;-74
2023/03/19 07:01:12;;;;;;;;;;;;;;;3.58;58.10;95483.03;4988505;28;1290;-74
2023/03/19 07:03:42;;;;;;;;;;;;;;;3.64;57.78;95489.22;4975003;28;1424;-74
2023/03/19 07:06:09;;;;;;;;;;;;;;;3.69;57.14;95481.75;4975008;28;1980;-75
2023/03/19 07:08:38;;;;;;;;;;;;;;;3.75;56.92;95480.56;4976664;28;964;-74
2023/03/19 07:11:05;;;;;;;;;;;;;;;3.85;56.82;95474.13;4975454;28;1241;-75
2023/03/19 07:13:36;;;;;;;;;;;;;;;3.99;58.10;95476.84;4975623;28;1196;-74
2023/03/19 07:16:05;;;;;;;;;;;;;;;4.14;58.47;95482.03;4975108;28;1123;-74
2023/03/19 07:18:33;;;;;;;;;;;;;;;4.28;58.73;95479.31;4975013;28;1229;-74
2023/03/19 07:21:04;;;;;;;;;;;;;;;4.35;57.94;95469.59;5007902;28;1330;-74
2023/03/19 07:23:34;;;;;;;;;;;;;;;4.46;57.55;95469.41;4975073;28;1197;-74
2023/03/19 07:26:06;;;;;;;;;;;;;;;4.51;57.29;95472.84;4974813;28;1898;-74
2023/03/19 07:28:33;;;;;;;;;;;;;;;4.59;57.55;95477.59;4974965;28;1220;-74
2023/03/19 07:30:59;;;;;;;;;;;;;;;4.76;57.05;95470.69;5008106;28;1323;-74
2023/03/19 07:33:30;;;;;;;;;;;;;;;4.79;56.08;95470.91;5008026;28;1236;-74
2023/03/19 07:36:01;;;;;;;;;;;;;;;4.91;55.51;95470.38;4974744;28;1533;-74
2023/03/19 07:38:29;;;;;;;;;;;;;;;5.04;55.71;95472.25;5007499;28;1714;-76
2023/03/19 07:40:58;;;;;;;;;;;;;;;5.24;56.64;95473.72;4975569;28;1199;-74
2023/03/19 07:43:28;;;;;;;;;;;;;;;5.31;54.93;95476.84;4974828;28;1261;-73
2023/03/19 07:45:56;;;;;;;;;;;;;;;5.37;54.22;95473.97;5007552;28;1918;-75
2023/03/19 07:48:27;;;;;;;;;;;;;;;5.43;53.51;95480.94;4975882;28;1092;-74
2023/03/19 07:51:01;;;;;;;;;;;;;;;5.48;54.32;95470.69;4975212;28;1173;-75
2023/03/19 07:53:31;;;;;;;;;;;;;;;5.59;54.69;95465.75;4975822;28;1060;-75
2023/03/19 07:55:59;;;;;;;;;;;;;;;5.72;54.62;95475.03;4974964;28;1150;-75
2023/03/19 07:58:32;;;;;;;;;;;;;;;5.85;53.33;95471.41;4991043;28;1332;-75
2023/03/19 08:01:05;;;;;;;;;;;;;;;5.91;54.22;95477.56;4975493;28;1482;-76
2023/03/19 08:03:33;;;;;;;;;;;;;;;5.94;54.03;95474.22;4974969;28;1600;-75
2023/03/19 08:06:05;;;;;;;;;;;;;;;6.01;54.51;95469.91;4991150;28;1899;-75
2023/03/19 08:08:36;;;;;;;;;;;;;;;6.01;53.59;95469.91;4974765;28;1258;-75
2023/03/19 08:11:07;;;;;;;;;;;;;;;6.05;53.57;95466.56;4994931;28;1092;-75
2023/03/19 08:13:35;;;;;;;;;;;;;;;6.21;53.39;95470.53;4978893;28;1242;-75
2023/03/19 08:16:07;;;;;;;;;;;;;;;6.27;52.49;95466.50;4978589;28;1265;-75
2023/03/19 08:18:35;;;;;;;;;;;;;;;6.26;52.51;95465.69;4978858;28;1277;-75
2023/03/19 08:21:06;;;;;;;;;;;;;;;6.30;52.23;95468.59;5011335;28;1281;-75
2023/03/19 08:23:36;;;;;;;;;;;;;;;6.47;51.13;95476.09;4978023;28;1093;-75
2023/03/19 08:26:07;;;;;;;;;;;;;;;6.64;51.38;95475.34;4979410;28;1903;-75
2023/03/19 08:28:41;;;;;;;;;;;;;;;6.73;48.93;95474.25;4978132;28;1102;-75
2023/03/19 08:31:14;;;;;;;;;;;;;;;6.87;50.40;95470.56;4977936;28;1234;-75
2023/03/19 08:33:45;;;;;;;;;;;;;;;6.98;51.77;95466.41;4978386;28;1461;-75
2023/03/19 08:36:14;;;;;;;;;;;;;;;7.05;50.30;95461.25;4977790;28;1165;-75
2023/03/19 08:38:44;;;;;;;;;;;;;;;7.07;50.04;95460.91;5010767;28;1098;-74
2023/03/19 08:41:12;;;;;;;;;;;;;;;7.14;48.79;95469.47;4978095;28;1287;-75
2023/03/19 08:43:44;;;;;;;;;;;;;;;7.28;50.11;95452.88;4978531;28;1040;-75
2023/03/19 08:46:12;;;;;;;;;;;;;;;7.42;48.91;95456.25;4978204;28;1906;-75
2023/03/19 08:48:42;;;;;;;;;;;;;;;7.55;48.34;95454.47;5010531;28;1087;-75
2023/03/19 08:51:10;;;;;;;;;;;;;;;7.69;47.44;95450.41;4977897;28;1358;-75
2023/03/19 08:53:41;;;;;;;;;;;;;;;7.87;48.39;95445.69;5009896;28;1209;-75
2023/03/19 08:56:12;;;;;;;;;;;;;;;8.24;49.79;95453.53;5009864;28;1489;-75
2023/03/19 08:58:41;;;;;;;;;;;;;;;8.51;47.70;95444.09;5010125;28;1310;-75
2023/03/19 09:01:14;;;;;;;;;;;;;;;8.70;47.24;95433.47;5009884;28;1091;-75
2023/03/19 09:03:44;;;;;;;;;;;;;;;8.94;46.58;95434.78;5009497;28;1246;-75
2023/03/19 09:06:15;;;;;;;;;;;;;;;9.09;45.86;95429.50;5009625;28;1906;-75
2023/03/19 09:08:43;;;;;;;;;;;;;;;9.28;46.04;95418.03;4977015;28;1247;-74
2023/03/19 09:11:10;;;;;;;;;;;;;;;9.47;43.05;95423.03;4977323;28;1410;-74
2023/03/19 09:13:38;;;;;;;;;;;;;;;9.52;44.62;95419.28;4977331;28;1210;-75
2023/03/19 09:16:06;;;;;;;;;;;;;;;9.77;48.17;95415.50;5009580;28;1186;-75
2023/03/19 09:18:38;;;;;;;;;;;;;;;9.81;46.78;95421.94;4977374;28;1172;-74
2023/03/19 09:21:12;;;;;;;;;;;;;;;9.85;47.63;95420.09;5009392;28;1310;-74
2023/03/19 09:23:40;;;;;;;;;;;;;;;9.93;49.58;95407.38;4977277;28;1157;-74
2023/03/19 09:26:06;;;;;;;;;;;;;;;10.02;49.72;95408.09;4977015;28;1918;-74
2023/03/19 09:28:38;;;;;;;;;;;;;;;10.07;49.18;95404.31;5010254;28;1402;-74
2023/03/19 09:31:06;;;;;;;;;;;;;;;10.03;48.50;95403.41;4976875;28;1108;-74
2023/03/19 09:33:35;;;;;;;;;;;;;;;10.11;49.64;95406.03;4978028;28;1013;-75
2023/03/19 09:36:05;;;;;;;;;;;;;;;10.02;46.36;95397.09;5009257;28;1107;-74
2023/03/19 09:38:39;;;;;;;;;;;;;;;9.95;48.41;95402.34;4977009;28;1123;-74
2023/03/19 09:41:13;;;;;;;;;;;;;;;10.03;48.50;95398.69;5009324;28;1209;-73
2023/03/19 09:43:49;;;;;;;;;;;;;;;10.05;45.57;95399.13;5009028;28;1185;-73
2023/03/19 09:46:18;;;;;;;;;;;;;;;9.98;46.77;95393.38;5008893;28;1914;-73
2023/03/19 09:48:47;;;;;;;;;;;;;;;10.08;45.82;95397.66;5009501;28;1098;-73
2023/03/19 09:51:33;;;;;;;;;;;;;;;10.11;45.29;95394.22;5008916;28;1204;-73
2023/03/19 09:54:03;;;;;;;;;;;;;;;10.31;48.45;95395.28;4976437;28;1682;-73
2023/03/19 09:56:32;;;;;;;;;;;;;;;10.43;48.03;95381.53;4977433;28;785;-73
2023/03/19 09:59:00;;;;;;;;;;;;;;;10.50;45.35;95384.53;4976522;28;1110;-73
2023/03/19 10:01:31;;;;;;;;;;;;;;;10.63;47.25;95377.03;5009388;28;1269;-72
2023/03/19 10:04:04;;;;;;;;;;;;;;;10.70;46.68;95376.47;5011881;28;1189;-73
2023/03/19 10:06:35;;;;;;;;;;;;;;;10.77;46.22;95365.66;4979275;28;1983;-73
2023/03/19 10:09:24;;;;;;;;;;;;;;;10.91;45.55;95371.59;4963820;28;1223;-73
2023/03/19 10:11:57;;;;;;;;;;;;;;;11.06;43.88;95364.56;4996173;28;1098;-74
2023/03/19 10:14:31;;;;;;;;;;;;;;;11.01;43.74;95353.78;5011707;28;1242;-73
2023/03/19 10:17:03;;;;;;;;;;;;;;;11.12;45.16;95362.38;4996341;28;979;-73
2023/03/19 10:19:36;;;;;;;;;;;;;;;11.28;46.53;95363.22;4978939;28;1178;-73
2023/03/19 10:22:12;;;;;;;;;;;;;;;11.43;47.86;95354.19;4978642;28;1326;-74
2023/03/19 10:24:41;;;;;;;;;;;;;;;11.48;40.55;95362.25;4979123;28;1082;-74
2023/03/19 10:27:11;;;;;;;;;;;;;;;11.47;40.70;95357.84;4979223;28;1914;-73
2023/03/19 10:29:41;;;;;;;;;;;;;;;11.61;43.22;95345.59;4995873;28;1268;-73
2023/03/19 10:32:12;;;;;;;;;;;;;;;11.70;44.96;95341.53;4995099;28;1196;-73
2023/03/19 10:34:47;;;;;;;;;;;;;;;11.76;43.59;95333.78;4994853;28;1109;-74
2023/03/19 10:37:21;;;;;;;;;;;;;;;11.87;43.22;95323.84;4995187;28;1187;-74
2023/03/19 10:39:53;;;;;;;;;;;;;;;11.96;43.61;95321.72;4995914;28;1505;-73
2023/03/19 10:42:26;;;;;;;;;;;;;;;11.99;43.74;95317.47;4995973;28;1225;-73
2023/03/19 10:45:01;;;;;;;;;;;;;;;12.11;45.06;95309.06;4994588;28;1349;-73
2023/03/19 10:47:30;;;;;;;;;;;;;;;12.38;43.70;95307.38;4995008;28;1976;-73
2023/03/19 10:50:00;;;;;;;;;;;;;;;12.59;42.63;95306.25;4995078;28;1533;-73
2023/03/19 10:52:31;;;;;;;;;;;;;;;12.73;43.89;95292.75;4995827;28;1086;-73
2023/03/19 10:55:05;;;;;;;;;;;;;;;12.92;43.23;95289.19;4994908;28;1592;-73
2023/03/19 10:57:33;;;;;;;;;;;;;;;13.04;41.36;95288.28;4996386;28;1066;-74
2023/03/19 11:00:03;;;;;;;;;;;;;;;13.15;41.23;95279.03;4995945;28;1093;-74
2023/03/19 11:02:35;;;;;;;;;;;;;;;13.31;40.18;95290.06;4995631;28;1246;-73
2023/03/19 11:05:10;;;;;;;;;;;;;;;13.45;42.36;95279.25;4994991;28;1264;-73
2023/03/19 11:07:42;;;;;;;;;;;;;;;13.54;39.32;95269.91;4994901;28;1971;-73
2023/03/19 11:10:15;;;;;;;;;;;;;;;13.53;41.64;95262.75;4995476;28;1112;-74
2023/03/19 11:12:43;;;;;;;;;;;;;;;13.60;42.20;95260.94;4995202;28;1396;-73
2023/03/19 11:15:23;;;;;;;;;;;;;;;13.63;40.16;95257.44;4995609;28;1425;-74
2023/03/19 11:17:56;;;;;;;;;;;;;;;13.79;40.84;95254.53;4995537;28;1190;-75
2023/03/19 11:20:32;;;;;;;;;;;;;;;13.82;39.59;95253.00;4995093;28;1243;-73
2023/03/19 11:23:16;;;;;;;;;;;;;;;13.92;39.38;95244.88;4994873;28;1196;-74
2023/03/19 11:25:46;;;;;;;;;;;;;;;14.08;39.23;95239.19;4995115;28;1081;-74
2023/03/19 11:28:15;;;;;;;;;;;;;;;14.17;38.92;95238.94;4994804;28;1963;-75
2023/03/19 11:30:45;;;;;;;;;;;;;;;14.34;40.41;95230.09;4995526;28;1492;-75
2023/03/19 11:33:46;;;;;;;;;;;;;;;14.59;40.19;95224.94;4996178;28;1078;-75
2023/03/19 11:36:16;;;;;;;;;;;;;;;14.77;37.83;95225.19;4995015;28;1379;-75
2023/03/19 11:38:50;;;;;;;;;;;;;;;14.86;37.38;95214.59;4996325;28;1010;-75
2023/03/19 11:41:23;;;;;;;;;;;;;;;14.67;37.17;95212.78;4995374;28;1106;-75
2023/03/19 11:43:55;;;;;;;;;;;;;;;14.62;37.16;95201.97;4995742;28;1283;-74
2023/03/19 11:46:32;;;;;;;;;;;;;;;14.67;38.70;95201.66;4998917;28;1907;-75
2023/03/19 11:49:18;;;;;;;;;;;;;;;14.94;38.22;95204.38;4998805;28;1255;-75
2023/03/19 11:51:46;;;;;;;;;;;;;;;15.25;37.55;95196.78;4982530;28;1245;-74
2023/03/19 11:54:19;;;;;;;;;;;;;;;15.26;36.44;95190.06;4998922;28;1102;-75
2023/03/19 11:56:48;;;;;;;;;;;;;;;15.24;36.89;95197.97;4997768;28;1323;-74
2023/03/19 11:59:26;;;;;;;;;;;;;;;15.30;36.85;95185.34;4998443;28;1224;-75
2023/03/19 12:01:59;;;;;;;;;;;;;;;15.31;36.34;95186.94;4999021;28;1273;-75
2023/03/19 12:04:40;;;;;;;;;;;;;;;15.29;34.83;95179.00;4998591;28;1156;-74
2023/03/19 12:07:12;;;;;;;;;;;;;;;15.41;36.06;95175.16;4998697;28;1887;-74
2023/03/19 12:09:46;;;;;;;;;;;;;;;15.43;36.05;95177.53;4998064;28;1346;-75
2023/03/19 12:12:17;;;;;;;;;;;;;;;15.38;34.78;95173.13;4998866;28;1279;-75
2023/03/19 12:15:09;;;;;;;;;;;;;;;15.47;36.25;95170.84;4999382;28;1171;-75
2023/03/19 12:17:49;;;;;;;;;;;;;;;15.73;35.21;95172.72;5014822;28;1124;-75
2023/03/19 12:20:34;;;;;;;;;;;;;;;15.78;34.88;95161.22;4998228;28;1209;-75
2023/03/19 12:23:05;;;;;;;;;;;;;;;15.95;35.06;95162.56;4998987;28;1023;-75
2023/03/19 12:26:03;;;;;;;;;;;;;;;16.04;33.83;95165.00;4998847;28;1077;-75
2023/03/19 12:28:34;;;;;;;;;;;;;;;16.24;33.66;95157.22;4943892;28;1927;-75
2023/03/19 12:31:28;;;;;;;;;;;;;;;16.07;33.56;95155.91;4998388;28;1424;-75
2023/03/19 12:34:00;;;;;;;;;;;;;;;15.99;33.58;95155.03;4979472;28;1234;-75
2023/03/19 12:36:28;;;;;;;;;;;;;;;16.14;33.96;95144.81;4998202;28;1165;-75
2023/03/19 12:39:00;;;;;;;;;;;;;;;16.39;35.20;95152.53;4998543;28;1132;-76
2023/03/19 12:41:30;;;;;;;;;;;;;;;16.60;36.10;95150.66;4998671;28;1199;-75
2023/03/19 12:44:04;;;;;;;;;;;;;;;16.82;35.44;95148.81;4998790;28;1069;-76
2023/03/19 12:46:33;;;;;;;;;;;;;;;16.87;34.82;95139.28;4998479;28;1109;-75
2023/03/19 12:49:02;;;;;;;;;;;;;;;16.95;34.40;95142.88;4998735;28;1906;-75
2023/03/19 12:51:31;;;;;;;;;;;;;;;17.03;34.06;95136.16;4997982;28;1361;-74
2023/03/19 12:54:00;;;;;;;;;;;;;;;17.14;32.44;95141.75;4997940;28;1566;-74
2023/03/19 12:56:29;;;;;;;;;;;;;;;17.05;31.90;95142.13;4997501;28;1031;-75
2023/03/19 12:59:01;;;;;;;;;;;;;;;17.09;31.68;95129.00;4997815;28;1125;-75
2023/03/19 13:01:29;;;;;;;;;;;;;;;17.19;31.20;95128.25;4998536;28;1103;-75
2023/03/19 13:03:58;;;;;;;;;;;;;;;17.11;30.97;95128.63;4997700;28;1229;-75
2023/03/19 13:06:27;;;;;;;;;;;;;;;17.20;31.24;95124.25;4997474;28;1081;-75
2023/03/19 13:08:56;;;;;;;;;;;;;;;17.35;31.01;95116.72;4997642;28;1919;-75
2023/03/19 13:11:30;;;;;;;;;;;;;;;17.39;30.47;95125.09;4997558;28;1223;-75
2023/03/19 13:14:01;;;;;;;;;;;;;;;17.41;30.28;95120.72;4997470;28;1105;-75
2023/03/19 13:16:31;;;;;;;;;;;;;;;17.58;31.58;95124.75;4998697;28;1088;-75
2023/03/19 13:19:02;;;;;;;;;;;;;;;17.67;30.80;95119.56;5014244;28;1288;-74
2023/03/19 13:21:31;;;;;;;;;;;;;;;17.67;31.33;95110.41;4998460;28;1060;-74
2023/03/19 13:24:01;;;;;;;;;;;;;;;17.77;30.70;95104.06;4997916;28;1272;-75